createdAt,value
2022-10-07T00:01:00.532Z,67.03
2022-10-07T00:03:28.668Z,66.87
2022-10-07T00:06:04.489Z,66.83
2022-10-07T00:08:31.750Z,67.13
2022-10-07T00:11:03.029Z,67.19
2022-10-07T00:13:29.718Z,67.05
2022-10-07T00:16:03.229Z,66.68
2022-10-07T00:18:29.685Z,67.00
2022-10-07T00:20:56.190Z,67.01
2022-10-07T00:23:22.635Z,66.87
2022-10-07T00:25:49.114Z,66.99
2022-10-07T00:28:15.613Z,66.80
2022-10-07T00:30:42.703Z,66.69
2022-10-07T00:33:10.626Z,66.41
2022-10-07T00:35:37.198Z,66.36
2022-10-07T00:38:05.534Z,66.26
2022-10-07T00:40:32.009Z,66.19
2022-10-07T00:42:58.601Z,65.98
2022-10-07T00:45:25.129Z,65.87
2022-10-07T00:47:51.732Z,65.46
2022-10-07T00:50:26.456Z,65.33
2022-10-07T00:52:57.911Z,65.24
2022-10-07T00:55:26.847Z,65.18
2022-10-07T00:57:56.499Z,65.14
2022-10-07T01:00:23.128Z,65.07
2022-10-07T01:02:50.140Z,65.16
2022-10-07T01:05:17.113Z,65.12
2022-10-07T01:07:49.438Z,65.28
2022-10-07T01:10:19.669Z,65.04
2022-10-07T01:13:01.051Z,64.57
2022-10-07T01:15:32.782Z,64.76
2022-10-07T01:18:12.740Z,64.98
2022-10-07T01:21:01.709Z,64.81
2022-10-07T01:23:49.680Z,65.00
2022-10-07T01:26:46.966Z,64.64
2022-10-07T01:29:22.548Z,65.35
2022-10-07T01:31:56.458Z,65.08
2022-10-07T01:34:26.009Z,65.42
2022-10-07T01:36:55.571Z,65.38
2022-10-07T01:39:29.463Z,65.33
2022-10-07T01:41:57.620Z,65.57
2022-10-07T01:44:24.288Z,65.45
2022-10-07T01:46:50.919Z,65.54
2022-10-07T01:49:17.646Z,65.49
2022-10-07T01:51:51.470Z,65.53
2022-10-07T01:54:59.253Z,65.54
2022-10-07T01:57:36.431Z,65.63
2022-10-07T02:00:06.463Z,65.89
2022-10-07T02:03:01.626Z,65.93
2022-10-07T02:05:54.709Z,65.64
2022-10-07T02:11:40.122Z,65.51
2022-10-07T02:14:10.994Z,65.85
2022-10-07T02:16:44.146Z,65.37
2022-10-07T02:19:16.592Z,65.30
2022-10-07T02:21:48.284Z,65.25
2022-10-07T02:24:17.680Z,65.29
2022-10-07T02:26:47.229Z,65.62
2022-10-07T02:29:18.552Z,65.61
2022-10-07T02:31:48.573Z,65.76
2022-10-07T02:34:20.154Z,65.60
2022-10-07T02:36:57.471Z,65.61
2022-10-07T02:39:27.301Z,65.85
2022-10-07T02:41:59.838Z,65.57
2022-10-07T02:44:37.536Z,65.64
2022-10-07T02:47:12.197Z,65.39
2022-10-07T02:49:41.359Z,65.55
2022-10-07T02:52:11.811Z,65.32
2022-10-07T02:54:49.767Z,65.08
2022-10-07T02:57:18.655Z,65.55
2022-10-07T02:59:49.308Z,65.59
2022-10-07T03:02:25.309Z,65.58
2022-10-07T03:04:52.995Z,65.90
2022-10-07T03:07:20.297Z,65.86
2022-10-07T03:09:46.956Z,66.04
2022-10-07T03:12:13.518Z,65.85
2022-10-07T03:14:40.062Z,66.02
2022-10-07T03:17:08.339Z,65.98
2022-10-07T03:19:35.039Z,65.88
2022-10-07T03:22:01.669Z,65.87
2022-10-07T03:24:32.141Z,65.91
2022-10-07T03:26:58.737Z,65.99
2022-10-07T03:29:25.251Z,65.91
2022-10-07T03:31:52.462Z,66.02
2022-10-07T03:34:19.212Z,66.10
2022-10-07T03:36:48.471Z,66.16
2022-10-07T03:39:15.973Z,66.12
2022-10-07T03:41:42.487Z,66.09
2022-10-07T03:44:09.846Z,66.13
2022-10-07T03:46:36.433Z,66.07
2022-10-07T03:49:03.133Z,66.08
2022-10-07T03:51:30.419Z,66.20
2022-10-07T03:53:58.298Z,66.21
2022-10-07T03:56:29.441Z,66.11
2022-10-07T03:58:56.009Z,66.19
2022-10-07T04:01:24.162Z,66.14
2022-10-07T04:03:55.233Z,66.09
2022-10-07T04:06:21.859Z,66.05
2022-10-07T04:08:54.435Z,65.81
2022-10-07T04:11:22.070Z,66.08
2022-10-07T04:13:52.088Z,65.96
2022-10-07T04:16:20.016Z,66.03
2022-10-07T04:18:47.588Z,66.12
2022-10-07T04:21:14.943Z,66.11
2022-10-07T04:23:41.726Z,66.05
2022-10-07T04:26:10.664Z,66.02
2022-10-07T04:28:40.406Z,66.08
2022-10-07T04:31:11.625Z,66.05
2022-10-07T04:33:44.332Z,66.10
2022-10-07T04:36:13.364Z,66.06
2022-10-07T04:38:51.308Z,65.82
2022-10-07T04:41:22.375Z,66.06
2022-10-07T04:43:57.388Z,65.74
2022-10-07T04:46:26.009Z,65.81
2022-10-07T04:49:00.984Z,65.82
2022-10-07T04:51:28.638Z,65.59
2022-10-07T04:53:58.353Z,65.82
2022-10-07T04:56:37.411Z,66.06
2022-10-07T04:59:06.835Z,65.92
2022-10-07T05:01:35.408Z,66.08
2022-10-07T05:04:02.066Z,66.23
2022-10-07T05:06:29.006Z,66.42
2022-10-07T05:08:55.597Z,66.68
2022-10-07T05:11:23.411Z,66.99
2022-10-07T05:14:01.778Z,67.17
2022-10-07T05:16:29.822Z,67.41
2022-10-07T05:18:58.079Z,67.43
2022-10-07T05:21:24.791Z,67.68
2022-10-07T05:23:52.151Z,67.78
2022-10-07T05:26:24.429Z,67.76
2022-10-07T05:28:56.043Z,67.83
2022-10-07T05:31:28.717Z,68.07
2022-10-07T05:33:59.591Z,68.22
2022-10-07T05:36:26.613Z,68.39
2022-10-07T05:38:57.137Z,68.39
2022-10-07T05:41:26.371Z,68.37
2022-10-07T05:43:53.049Z,68.25
2022-10-07T05:46:20.225Z,68.30
2022-10-07T05:48:53.378Z,68.32
2022-10-07T05:51:25.072Z,68.20
2022-10-07T05:53:56.281Z,68.01
2022-10-07T05:56:26.355Z,68.45
2022-10-07T05:58:55.119Z,68.66
2022-10-07T06:01:23.687Z,68.53
2022-10-07T06:03:56.469Z,68.21
2022-10-07T06:06:26.508Z,68.58
2022-10-07T06:08:56.599Z,68.64
2022-10-07T06:11:23.095Z,68.54
2022-10-07T06:13:53.765Z,68.62
2022-10-07T06:16:21.344Z,68.65
2022-10-07T06:18:48.897Z,68.05
2022-10-07T06:21:15.374Z,68.82
2022-10-07T06:23:42.057Z,68.83
2022-10-07T06:26:10.732Z,68.61
2022-10-07T06:28:39.959Z,68.66
2022-10-07T06:34:32.004Z,68.87
2022-10-07T06:36:58.752Z,68.95
2022-10-07T06:39:25.763Z,68.89
2022-10-07T06:41:52.553Z,68.94
2022-10-07T06:44:27.317Z,68.86
2022-10-07T06:46:55.303Z,69.21
2022-10-07T06:49:22.140Z,69.32
2022-10-07T06:51:48.689Z,69.40
2022-10-07T06:54:15.307Z,69.73
2022-10-07T06:56:41.912Z,69.67
2022-10-07T06:59:09.471Z,69.91
2022-10-07T07:02:01.492Z,69.85
2022-10-07T07:04:29.400Z,69.62
2022-10-07T07:06:56.309Z,69.86
2022-10-07T07:09:22.884Z,69.84
2022-10-07T07:11:54.193Z,69.80
2022-10-07T07:14:26.631Z,69.95
2022-10-07T07:17:00.579Z,69.85
2022-10-07T07:19:27.511Z,69.90
2022-10-07T07:21:55.496Z,70.15
2022-10-07T07:24:23.849Z,70.10
2022-10-07T07:26:51.459Z,70.09
2022-10-07T07:29:19.000Z,70.03
2022-10-07T07:31:50.223Z,69.85
2022-10-07T07:34:19.008Z,69.70
2022-10-07T07:36:48.877Z,69.58
2022-10-07T07:39:17.803Z,69.68
2022-10-07T07:41:49.982Z,69.84
2022-10-07T07:44:19.074Z,69.70
2022-10-07T07:46:48.830Z,69.46
2022-10-07T07:49:16.169Z,69.48
2022-10-07T07:51:44.755Z,69.33
2022-10-07T07:54:16.862Z,69.10
2022-10-07T07:56:46.579Z,68.82
2022-10-07T07:59:13.396Z,69.08
2022-10-07T08:01:40.824Z,69.00
2022-10-07T08:04:07.803Z,69.01
2022-10-07T08:06:34.759Z,69.33
2022-10-07T08:09:03.878Z,69.03
2022-10-07T08:11:32.382Z,69.02
2022-10-07T08:14:00.335Z,69.03
2022-10-07T08:16:29.080Z,68.78
2022-10-07T08:18:58.129Z,68.83
2022-10-07T08:21:27.533Z,68.49
2022-10-07T08:23:59.045Z,68.68
2022-10-07T08:26:32.304Z,68.46
2022-10-07T08:29:01.187Z,68.30
2022-10-07T08:31:29.427Z,68.54
2022-10-07T08:33:57.434Z,67.66
2022-10-07T08:36:24.775Z,68.12
2022-10-07T08:38:52.141Z,68.91
2022-10-07T08:41:30.494Z,67.59
2022-10-07T08:44:00.744Z,68.54
2022-10-07T08:46:32.768Z,68.02
2022-10-07T08:49:05.347Z,67.51
2022-10-07T08:51:41.547Z,67.18
2022-10-07T08:54:13.716Z,67.03
2022-10-07T08:56:42.268Z,67.78
2022-10-07T08:59:47.394Z,66.09
2022-10-07T09:02:45.082Z,65.55
2022-10-07T09:05:20.912Z,64.95
2022-10-07T09:07:56.420Z,65.76
2022-10-07T09:10:39.598Z,66.01
2022-10-07T09:26:15.454Z,66.53
2022-10-07T09:28:42.170Z,66.97
2022-10-07T09:31:14.117Z,66.29
2022-10-07T09:33:44.743Z,66.51
2022-10-07T09:36:14.401Z,66.66
2022-10-07T09:38:43.087Z,66.70
2022-10-07T09:41:16.836Z,65.48
2022-10-07T09:43:59.737Z,65.88
2022-10-07T09:46:39.075Z,66.19
2022-10-07T09:49:06.924Z,66.96
2022-10-07T09:51:34.309Z,66.95
2022-10-07T09:54:03.891Z,65.73
2022-10-07T09:56:54.349Z,65.56
2022-10-07T09:59:25.142Z,65.58
2022-10-07T10:02:14.925Z,64.85
2022-10-07T10:04:48.542Z,65.55
2022-10-07T10:07:22.120Z,64.77
2022-10-07T10:09:54.313Z,64.54
2022-10-07T10:12:24.554Z,65.17
2022-10-07T10:14:55.969Z,65.66
2022-10-07T10:17:39.476Z,65.06
2022-10-07T10:20:23.992Z,65.16
2022-10-07T10:22:51.159Z,66.68
2022-10-07T10:25:53.888Z,65.51
2022-10-07T10:28:42.886Z,65.54
2022-10-07T10:31:27.876Z,65.14
2022-10-07T10:34:04.599Z,65.65
2022-10-07T10:36:36.300Z,65.38
2022-10-07T10:39:14.107Z,66.09
2022-10-07T10:41:58.030Z,64.66
2022-10-07T10:44:36.520Z,65.35
2022-10-07T10:47:30.747Z,64.26
2022-10-07T10:50:04.809Z,65.83
2022-10-07T10:52:54.678Z,64.14
2022-10-07T10:55:35.275Z,63.43
2022-10-07T10:58:29.236Z,63.48
2022-10-07T11:01:19.522Z,62.96
2022-10-07T11:04:04.822Z,65.56
2022-10-07T11:06:34.808Z,64.79
2022-10-07T11:09:02.709Z,64.95
2022-10-07T11:11:29.310Z,65.40
2022-10-07T11:14:04.557Z,63.90
2022-10-07T11:16:43.652Z,63.25
2022-10-07T11:19:22.229Z,62.91
2022-10-07T11:21:51.777Z,63.84
2022-10-07T11:24:26.476Z,63.57
2022-10-07T11:27:04.376Z,63.22
2022-10-07T11:29:33.820Z,63.78
2022-10-07T11:32:16.386Z,62.49
2022-10-07T11:35:01.260Z,64.11
2022-10-07T11:37:40.744Z,62.60
2022-10-07T11:40:08.223Z,64.88
2022-10-07T11:42:43.287Z,63.06
2022-10-07T11:45:18.289Z,63.61
2022-10-07T11:47:57.024Z,62.14
2022-10-07T11:50:31.466Z,62.96
2022-10-07T11:53:09.783Z,62.57
2022-10-07T11:55:45.058Z,63.44
2022-10-07T11:58:33.727Z,62.77
2022-10-07T12:01:40.411Z,61.81
2022-10-07T12:04:34.836Z,62.62
2022-10-07T12:07:31.984Z,61.08
2022-10-07T12:10:01.275Z,59.92
2022-10-07T12:12:49.048Z,60.10
2022-10-07T12:15:43.071Z,60.01
2022-10-07T12:18:13.187Z,62.41
2022-10-07T12:20:51.753Z,60.14
2022-10-07T12:23:18.177Z,62.43
2022-10-07T12:25:45.599Z,62.82
2022-10-07T12:28:40.250Z,61.57
2022-10-07T12:31:12.542Z,63.22
2022-10-07T12:33:46.368Z,62.89
2022-10-07T12:36:18.838Z,62.35
2022-10-07T12:39:06.265Z,62.85
2022-10-07T12:41:39.787Z,62.60
2022-10-07T12:44:52.046Z,62.33
2022-10-07T12:47:27.566Z,60.18
2022-10-07T12:50:00.298Z,60.95
2022-10-07T12:52:32.685Z,60.26
2022-10-07T12:55:03.195Z,61.15
2022-10-07T12:57:38.067Z,60.87
2022-10-07T13:00:07.673Z,62.81
2022-10-07T13:02:52.388Z,61.32
2022-10-07T13:05:40.307Z,60.42
2022-10-07T13:08:25.678Z,61.09
2022-10-07T13:11:04.479Z,61.03
2022-10-07T13:13:34.842Z,61.64
2022-10-07T13:16:10.819Z,60.39
2022-10-07T13:18:58.832Z,61.03
2022-10-07T13:21:36.110Z,61.91
2022-10-07T13:24:03.464Z,62.03
2022-10-07T13:26:30.061Z,61.14
2022-10-07T13:28:58.473Z,59.73
2022-10-07T13:31:27.717Z,59.50
2022-10-07T13:33:56.527Z,60.41
2022-10-07T13:36:27.200Z,60.73
2022-10-07T13:39:21.173Z,59.19
2022-10-07T13:41:50.901Z,60.85
2022-10-07T13:44:20.086Z,60.70
2022-10-07T13:46:58.663Z,59.47
2022-10-07T13:49:32.960Z,59.70
2022-10-07T13:52:02.634Z,59.86
2022-10-07T13:54:31.941Z,59.60
2022-10-07T13:57:00.240Z,57.85
2022-10-07T13:59:27.371Z,58.45
2022-10-07T14:01:56.853Z,58.69
2022-10-07T14:04:29.189Z,59.04
2022-10-07T14:07:01.650Z,60.16
2022-10-07T14:09:49.566Z,59.66
2022-10-07T14:12:26.261Z,59.66
2022-10-07T14:14:59.330Z,59.97
2022-10-07T14:17:47.218Z,59.64
2022-10-07T14:20:33.626Z,59.74
2022-10-07T14:23:16.915Z,59.95
2022-10-07T14:25:57.636Z,59.13
2022-10-07T14:28:24.233Z,58.57
2022-10-07T14:31:08.845Z,58.62
2022-10-07T14:33:44.495Z,59.11
2022-10-07T14:36:17.560Z,59.35
2022-10-07T14:38:46.564Z,60.23
2022-10-07T14:41:15.268Z,60.15
2022-10-07T14:43:43.856Z,59.95
2022-10-07T14:46:17.333Z,59.95
2022-10-07T14:48:44.832Z,59.82
2022-10-07T14:51:11.710Z,58.96
2022-10-07T14:53:41.059Z,59.01
2022-10-07T14:56:14.005Z,59.12
2022-10-07T14:58:40.842Z,59.24
2022-10-07T15:01:07.357Z,59.29
2022-10-07T15:03:34.971Z,59.37
2022-10-07T15:06:01.527Z,60.24
2022-10-07T15:08:28.027Z,60.17
2022-10-07T15:10:54.594Z,60.81
2022-10-07T15:13:21.137Z,61.05
2022-10-07T15:15:48.429Z,61.24
2022-10-07T15:18:14.952Z,61.43
2022-10-07T15:20:41.657Z,61.39
2022-10-07T15:23:08.353Z,61.80
2022-10-07T15:25:36.020Z,61.31
2022-10-07T15:28:02.902Z,61.82
2022-10-07T15:30:29.549Z,61.47
2022-10-07T15:32:57.515Z,61.58
2022-10-07T15:35:26.585Z,61.59
2022-10-07T15:37:53.895Z,61.74
2022-10-07T15:40:20.947Z,62.02
2022-10-07T15:42:47.985Z,62.20
2022-10-07T15:45:14.908Z,62.50
2022-10-07T15:47:41.553Z,62.86
2022-10-07T15:50:08.678Z,62.83
2022-10-07T15:52:35.338Z,62.79
2022-10-07T15:55:07.276Z,62.98
2022-10-07T15:57:34.220Z,62.82
2022-10-07T16:00:00.787Z,62.87
2022-10-07T16:02:27.341Z,63.06
2022-10-07T16:04:53.926Z,63.22
2022-10-07T16:07:20.668Z,63.18
2022-10-07T16:09:47.144Z,63.49
2022-10-07T16:12:13.662Z,63.31
2022-10-07T16:14:40.160Z,63.57
2022-10-07T16:17:06.760Z,63.54
2022-10-07T16:19:33.297Z,63.38
2022-10-07T16:21:59.873Z,63.35
2022-10-07T16:24:27.537Z,63.22
2022-10-07T16:26:55.555Z,63.24
2022-10-07T16:29:23.325Z,63.27
2022-10-07T16:31:54.608Z,63.49
2022-10-07T16:34:23.980Z,63.54
2022-10-07T16:36:50.708Z,63.50
2022-10-07T16:39:18.863Z,63.65
2022-10-07T16:41:45.829Z,63.96
2022-10-07T16:44:12.887Z,63.97
2022-10-07T16:46:40.554Z,64.02
2022-10-07T16:49:08.784Z,63.71
2022-10-07T16:51:36.402Z,63.90
2022-10-07T16:54:10.478Z,64.01
2022-10-07T16:56:36.992Z,63.91
2022-10-07T16:59:05.647Z,63.88
2022-10-07T17:01:32.857Z,64.19
2022-10-07T17:04:00.897Z,64.20
2022-10-07T17:06:29.866Z,64.14
2022-10-07T17:08:57.876Z,64.22
2022-10-07T17:11:24.420Z,64.12
2022-10-07T17:13:50.885Z,64.25
2022-10-07T17:16:17.396Z,64.41
2022-10-07T17:18:44.014Z,64.29
2022-10-07T17:21:10.521Z,64.41
2022-10-07T17:23:37.023Z,64.30
2022-10-07T17:26:06.815Z,64.30
2022-10-07T17:28:34.990Z,64.37
2022-10-07T17:31:08.380Z,64.65
2022-10-07T17:33:34.973Z,64.51
2022-10-07T17:36:06.693Z,64.70
2022-10-07T17:38:44.633Z,65.01
2022-10-07T17:41:14.142Z,65.01
2022-10-07T17:43:40.613Z,64.87
2022-10-07T17:46:12.432Z,65.05
2022-10-07T17:48:47.242Z,65.36
2022-10-07T17:51:15.008Z,65.46
2022-10-07T17:53:42.627Z,65.61
2022-10-07T17:56:11.720Z,65.71
2022-10-07T17:58:40.477Z,65.89
2022-10-07T18:01:09.754Z,65.99
2022-10-07T18:03:36.342Z,66.03
2022-10-07T18:06:02.924Z,66.10
2022-10-07T18:08:29.525Z,66.22
2022-10-07T18:10:56.010Z,66.35
2022-10-07T18:13:22.590Z,66.50
2022-10-07T18:15:59.650Z,66.90
2022-10-07T18:18:27.026Z,66.84
2022-10-07T18:20:53.511Z,67.07
2022-10-07T18:23:20.346Z,67.31
2022-10-07T18:25:47.624Z,67.48
2022-10-07T18:28:14.362Z,67.67
2022-10-07T18:30:40.856Z,67.95
2022-10-07T18:33:07.394Z,68.09
2022-10-07T18:35:33.969Z,68.43
2022-10-07T18:38:00.460Z,68.64
2022-10-07T18:40:27.036Z,68.78
2022-10-07T18:42:53.521Z,68.93
2022-10-07T18:45:20.063Z,69.02
2022-10-07T18:47:46.790Z,69.06
2022-10-07T18:50:13.660Z,69.11
2022-10-07T18:52:40.295Z,69.11
2022-10-07T18:55:07.138Z,68.99
2022-10-07T18:57:33.727Z,69.28
2022-10-07T19:00:00.314Z,69.10
2022-10-07T19:02:26.851Z,69.43
2022-10-07T19:04:53.316Z,69.41
2022-10-07T19:07:19.854Z,69.20
2022-10-07T19:09:46.426Z,69.40
2022-10-07T19:12:12.888Z,69.41
2022-10-07T19:14:39.377Z,69.32
2022-10-07T19:17:05.871Z,69.17
2022-10-07T19:19:32.448Z,69.41
2022-10-07T19:21:58.968Z,69.19
2022-10-07T19:24:25.532Z,69.08
2022-10-07T19:26:52.003Z,69.10
2022-10-07T19:29:18.501Z,69.20
2022-10-07T19:31:49.238Z,69.38
2022-10-07T19:34:19.092Z,69.22
2022-10-07T19:36:45.813Z,69.16
2022-10-07T19:39:18.221Z,69.17
2022-10-07T19:41:45.447Z,69.11
2022-10-07T19:44:13.234Z,69.41
2022-10-07T19:46:39.904Z,69.33
2022-10-07T19:49:07.647Z,69.27
2022-10-07T19:51:35.129Z,69.02
2022-10-07T19:54:03.896Z,69.03
2022-10-07T19:56:34.251Z,69.07
2022-10-07T19:59:03.827Z,69.00
2022-10-07T20:01:32.705Z,68.77
2022-10-07T20:04:04.621Z,68.64
2022-10-07T20:06:33.871Z,68.94
2022-10-07T20:09:00.413Z,68.87
2022-10-07T20:11:26.886Z,68.79
2022-10-07T20:13:53.419Z,68.69
2022-10-07T20:16:23.411Z,68.76
2022-10-07T20:18:56.518Z,68.84
2022-10-07T20:21:23.039Z,68.87
2022-10-07T20:23:52.841Z,68.87
2022-10-07T20:26:24.828Z,68.87
2022-10-07T20:28:54.467Z,69.10
2022-10-07T20:31:23.480Z,68.83
2022-10-07T20:33:52.675Z,68.82
2022-10-07T20:36:25.592Z,68.67
2022-10-07T20:39:06.186Z,68.88
2022-10-07T20:41:32.664Z,68.66
2022-10-07T20:43:59.349Z,68.75
2022-10-07T20:46:25.990Z,68.87
2022-10-07T20:48:53.432Z,68.74
2022-10-07T20:51:20.793Z,68.90
2022-10-07T20:53:48.365Z,68.64
2022-10-07T20:56:14.880Z,68.74
2022-10-07T20:58:41.423Z,68.55
2022-10-07T21:01:08.200Z,68.77
2022-10-07T21:03:34.949Z,68.72
2022-10-07T21:06:01.811Z,68.84
2022-10-07T21:08:28.425Z,68.93
2022-10-07T21:11:02.994Z,68.59
2022-10-07T21:13:30.868Z,68.70
2022-10-07T21:15:58.028Z,68.95
2022-10-07T21:18:24.731Z,68.79
2022-10-07T21:20:56.999Z,68.55
2022-10-07T21:23:23.961Z,68.57
2022-10-07T21:25:50.762Z,68.40
2022-10-07T21:28:20.656Z,68.17
2022-10-07T21:30:57.230Z,68.14
2022-10-07T21:33:23.943Z,68.24
2022-10-07T21:35:50.408Z,68.08
2022-10-07T21:38:16.935Z,68.22
2022-10-07T21:40:43.403Z,68.24
2022-10-07T21:43:10.104Z,68.45
2022-10-07T21:45:36.649Z,68.34
2022-10-07T21:48:03.178Z,68.30
2022-10-07T21:50:29.644Z,67.94
2022-10-07T21:52:56.126Z,68.03
2022-10-07T21:55:22.585Z,68.01
2022-10-07T21:57:49.087Z,68.14
2022-10-07T22:00:16.048Z,68.16
2022-10-07T22:02:42.839Z,68.21
2022-10-07T22:05:09.611Z,68.23
2022-10-07T22:07:36.323Z,68.14
2022-10-07T22:10:02.969Z,68.07
2022-10-07T22:12:29.458Z,67.96
2022-10-07T22:14:55.947Z,68.14
2022-10-07T22:17:22.414Z,67.97
2022-10-07T22:19:48.877Z,67.95
2022-10-07T22:22:15.427Z,67.86
2022-10-07T22:24:41.902Z,67.74
2022-10-07T22:27:08.474Z,67.88
2022-10-07T22:29:36.588Z,67.73
2022-10-07T22:32:03.096Z,68.06
2022-10-07T22:34:29.556Z,67.63
2022-10-07T22:36:56.217Z,67.83
2022-10-07T22:39:22.945Z,67.70
2022-10-07T22:41:49.438Z,67.63
2022-10-07T22:44:15.861Z,67.75
2022-10-07T22:46:42.578Z,67.80
2022-10-07T22:49:09.079Z,67.92
2022-10-07T22:51:36.547Z,67.91
2022-10-07T22:54:03.304Z,68.01
2022-10-07T22:56:29.765Z,68.07
2022-10-07T22:58:58.831Z,68.16
2022-10-07T23:01:29.817Z,67.99
2022-10-07T23:03:57.209Z,68.10
2022-10-07T23:06:24.304Z,68.09
2022-10-07T23:08:50.830Z,68.26
2022-10-07T23:11:23.748Z,68.26
2022-10-07T23:13:50.999Z,68.09
2022-10-07T23:16:20.249Z,68.07
2022-10-07T23:18:48.515Z,68.10
2022-10-07T23:21:14.867Z,68.08
2022-10-07T23:23:44.480Z,67.89
2022-10-07T23:26:15.805Z,67.94
2022-10-07T23:28:42.540Z,67.94
2022-10-07T23:31:13.621Z,68.11
2022-10-07T23:33:40.827Z,68.17
2022-10-07T23:36:09.550Z,68.05
2022-10-07T23:38:37.786Z,68.02
2022-10-07T23:41:05.420Z,68.08
2022-10-07T23:43:32.249Z,68.12
2022-10-07T23:46:02.796Z,68.18
2022-10-07T23:48:29.860Z,68.08
2022-10-07T23:50:56.355Z,68.11
2022-10-07T23:53:23.171Z,68.04
2022-10-07T23:55:51.437Z,67.89
2022-10-07T23:58:20.395Z,68.03
